createdAt,value
2018-07-27T00:02:25.169Z,46.80
2018-07-27T00:04:53.345Z,47.20
2018-07-27T00:07:21.608Z,47.50
2018-07-27T00:09:49.784Z,47.50
2018-07-27T00:12:17.946Z,47.40
2018-07-27T00:14:46.116Z,47.30
2018-07-27T00:19:42.253Z,47.60
2018-07-27T00:22:10.421Z,47.60
2018-07-27T00:24:38.564Z,48.10
2018-07-27T00:27:06.777Z,48.40
2018-07-27T00:29:34.973Z,48.70
2018-07-27T00:32:03.141Z,49.10
2018-07-27T00:34:31.342Z,49.30
2018-07-27T00:36:59.513Z,49.60
2018-07-27T00:39:27.785Z,49.40
2018-07-27T00:41:55.978Z,50.00
2018-07-27T00:44:24.132Z,49.90
2018-07-27T00:46:52.306Z,50.10
2018-07-27T00:49:20.511Z,50.10
2018-07-27T00:51:48.687Z,50.60
2018-07-27T00:54:16.863Z,50.70
2018-07-27T00:56:45.040Z,50.60
2018-07-27T00:59:13.190Z,50.90
2018-07-27T01:01:41.342Z,51.20
2018-07-27T01:04:09.507Z,51.50
2018-07-27T01:06:37.716Z,51.70
2018-07-27T01:09:07.791Z,51.80
2018-07-27T01:11:35.975Z,52.20
2018-07-27T01:14:04.125Z,52.30
2018-07-27T01:16:32.274Z,52.30
2018-07-27T01:19:00.440Z,51.40
2018-07-27T01:21:28.618Z,51.70
2018-07-27T01:23:56.834Z,51.60
2018-07-27T01:26:25.015Z,51.80
2018-07-27T01:28:53.230Z,51.90
2018-07-27T01:31:21.435Z,52.30
2018-07-27T01:33:49.611Z,52.20
2018-07-27T01:36:17.783Z,52.50
2018-07-27T01:38:45.996Z,52.50
2018-07-27T01:41:14.186Z,52.10
2018-07-27T01:43:42.383Z,52.20
2018-07-27T01:46:10.676Z,52.30
2018-07-27T01:48:38.841Z,52.30
2018-07-27T01:51:07.103Z,52.30
2018-07-27T01:53:35.350Z,52.40
2018-07-27T01:56:03.483Z,52.50
2018-07-27T01:58:31.631Z,53.10
2018-07-27T02:00:59.795Z,53.30
2018-07-27T02:03:27.955Z,53.60
2018-07-27T02:05:56.117Z,54.50
2018-07-27T02:08:24.268Z,54.10
2018-07-27T02:10:52.451Z,54.60
2018-07-27T02:13:20.643Z,54.80
2018-07-27T02:15:48.844Z,55.00
2018-07-27T02:18:17.062Z,55.40
2018-07-27T02:20:45.220Z,55.10
2018-07-27T02:23:13.395Z,55.50
2018-07-27T02:25:41.568Z,54.80
2018-07-27T02:28:09.716Z,54.90
2018-07-27T02:30:37.888Z,54.80
2018-07-27T02:33:06.056Z,54.90
2018-07-27T02:35:34.268Z,55.10
2018-07-27T02:38:02.432Z,55.40
2018-07-27T02:40:30.601Z,55.50
2018-07-27T02:42:58.916Z,55.40
2018-07-27T02:45:27.100Z,56.30
2018-07-27T02:47:55.300Z,55.70
2018-07-27T02:52:51.449Z,56.30
2018-07-27T02:55:19.621Z,56.60
2018-07-27T02:57:47.781Z,56.60
2018-07-27T03:00:15.956Z,56.70
2018-07-27T03:02:44.141Z,56.70
2018-07-27T03:05:12.368Z,56.70
2018-07-27T03:07:40.569Z,57.00
2018-07-27T03:10:08.765Z,56.90
2018-07-27T03:12:36.957Z,56.40
2018-07-27T03:15:06.160Z,57.20
2018-07-27T03:17:34.337Z,57.20
2018-07-27T03:20:02.535Z,57.10
2018-07-27T03:22:30.689Z,58.50
2018-07-27T03:24:58.884Z,58.80
2018-07-27T03:27:27.080Z,59.10
2018-07-27T03:32:23.173Z,59.00
2018-07-27T03:34:51.360Z,59.20
2018-07-27T03:37:19.541Z,59.90
2018-07-27T03:39:47.709Z,59.80
2018-07-27T03:42:16.015Z,60.20
2018-07-27T03:44:44.110Z,60.30
2018-07-27T03:47:12.306Z,60.50
2018-07-27T03:49:40.482Z,60.60
2018-07-27T03:52:08.738Z,61.00
2018-07-27T03:54:36.929Z,61.70
2018-07-27T03:57:05.214Z,61.90
2018-07-27T03:59:33.366Z,61.80
2018-07-27T04:02:01.562Z,63.10
2018-07-27T04:04:29.706Z,62.70
2018-07-27T04:06:57.862Z,62.30
2018-07-27T04:09:26.055Z,62.90
2018-07-27T04:11:54.210Z,63.60
2018-07-27T04:14:22.373Z,63.80
2018-07-27T04:16:50.593Z,64.50
2018-07-27T04:19:18.761Z,63.70
2018-07-27T04:21:46.914Z,63.40
2018-07-27T04:24:15.105Z,63.00
2018-07-27T04:26:43.273Z,62.80
2018-07-27T04:29:13.171Z,63.30
2018-07-27T04:31:41.363Z,63.40
2018-07-27T04:34:09.526Z,63.80
2018-07-27T04:36:37.719Z,64.10
2018-07-27T04:39:08.348Z,65.10
2018-07-27T04:41:36.512Z,64.10
2018-07-27T04:44:04.700Z,64.00
2018-07-27T04:46:32.936Z,63.60
2018-07-27T04:49:01.102Z,63.30
2018-07-27T04:51:29.319Z,63.30
2018-07-27T04:53:57.544Z,63.60
2018-07-27T04:56:25.725Z,63.60
2018-07-27T04:58:53.889Z,63.80
2018-07-27T05:01:22.680Z,64.30
2018-07-27T05:03:50.845Z,63.90
2018-07-27T05:06:19.101Z,63.60
2018-07-27T05:08:52.681Z,63.50
2018-07-27T05:11:20.826Z,63.10
2018-07-27T05:16:16.921Z,62.80
2018-07-27T05:18:45.147Z,62.90
2018-07-27T05:21:13.388Z,62.80
2018-07-27T05:23:41.629Z,62.80
2018-07-27T05:26:09.792Z,62.60
2018-07-27T05:28:37.958Z,62.30
2018-07-27T05:31:06.259Z,62.00
2018-07-27T05:33:34.467Z,61.10
2018-07-27T05:36:02.627Z,60.20
2018-07-27T05:38:30.827Z,59.80
2018-07-27T05:40:59.019Z,59.60
2018-07-27T05:43:27.307Z,59.30
2018-07-27T05:45:55.574Z,59.00
2018-07-27T05:48:23.827Z,58.30
2018-07-27T05:50:52.020Z,57.10
2018-07-27T05:53:20.188Z,54.90
2018-07-27T05:55:48.383Z,54.70
2018-07-27T05:58:16.541Z,54.20
2018-07-27T06:00:44.699Z,54.10
2018-07-27T06:03:12.920Z,54.20
2018-07-27T06:05:41.091Z,53.80
2018-07-27T06:08:09.291Z,53.50
2018-07-27T06:10:37.488Z,53.40
2018-07-27T06:13:05.804Z,53.40
2018-07-27T06:15:34.654Z,53.30
2018-07-27T06:18:03.018Z,52.50
2018-07-27T06:20:31.184Z,52.20
2018-07-27T06:22:59.381Z,52.40
2018-07-27T06:25:27.549Z,52.20
2018-07-27T06:27:55.732Z,51.30
2018-07-27T06:30:23.908Z,51.00
2018-07-27T06:32:52.105Z,50.30
2018-07-27T06:35:20.293Z,50.30
2018-07-27T06:37:48.505Z,49.40
2018-07-27T06:40:16.689Z,48.60
2018-07-27T06:42:44.866Z,48.50
2018-07-27T06:45:13.090Z,47.50
2018-07-27T06:47:41.258Z,47.60
2018-07-27T06:50:09.455Z,46.70
2018-07-27T06:52:37.690Z,46.40
2018-07-27T06:55:06.011Z,45.50
2018-07-27T06:57:34.188Z,45.90
2018-07-27T07:00:02.359Z,45.10
2018-07-27T07:02:30.563Z,44.60
2018-07-27T07:04:58.730Z,44.30
2018-07-27T07:07:26.891Z,43.80
2018-07-27T07:09:55.379Z,44.00
2018-07-27T07:12:23.556Z,43.00
2018-07-27T07:14:51.728Z,43.30
2018-07-27T07:17:19.919Z,42.50
2018-07-27T07:19:48.063Z,42.10
2018-07-27T07:22:16.265Z,41.30
2018-07-27T07:24:44.444Z,40.90
2018-07-27T07:27:12.712Z,41.60
2018-07-27T07:29:40.916Z,41.20
2018-07-27T07:32:09.113Z,41.00
2018-07-27T07:34:37.319Z,40.70
2018-07-27T07:37:05.544Z,40.50
2018-07-27T07:42:02.022Z,39.30
2018-07-27T07:44:30.207Z,39.30
2018-07-27T07:46:58.364Z,39.50
2018-07-27T07:49:26.647Z,38.40
2018-07-27T07:51:54.804Z,38.70
2018-07-27T07:54:22.960Z,38.60
2018-07-27T07:56:51.155Z,38.50
2018-07-27T07:59:19.656Z,38.40
2018-07-27T08:01:47.843Z,39.40
2018-07-27T08:04:16.075Z,37.30
2018-07-27T08:06:44.227Z,37.10
2018-07-27T08:09:12.464Z,37.00
2018-07-27T08:11:40.672Z,36.30
2018-07-27T08:14:08.856Z,35.50
2018-07-27T08:16:37.041Z,35.40
2018-07-27T08:19:05.296Z,35.10
2018-07-27T08:21:33.520Z,34.10
2018-07-27T08:24:01.736Z,34.60
2018-07-27T08:26:43.041Z,34.60
2018-07-27T08:29:12.112Z,35.00
2018-07-27T08:31:41.689Z,34.80
2018-07-27T08:34:10.092Z,34.60
2018-07-27T08:36:38.275Z,34.30
2018-07-27T08:39:10.557Z,33.30
2018-07-27T08:41:39.252Z,33.80
2018-07-27T08:44:08.180Z,33.60
2018-07-27T08:46:36.557Z,33.00
2018-07-27T08:49:04.737Z,32.10
2018-07-27T08:51:33.036Z,31.80
2018-07-27T08:54:01.229Z,32.90
2018-07-27T08:56:29.430Z,32.50
2018-07-27T08:58:57.584Z,32.80
2018-07-27T09:01:25.765Z,32.30
2018-07-27T09:03:54.021Z,31.40
2018-07-27T09:06:22.229Z,32.40
2018-07-27T09:08:50.954Z,32.30
2018-07-27T09:11:19.506Z,31.60
2018-07-27T09:13:47.929Z,31.20
2018-07-27T09:16:16.118Z,31.10
2018-07-27T09:18:44.324Z,31.00
2018-07-27T09:21:12.557Z,30.80
2018-07-27T09:23:40.771Z,31.90
2018-07-27T09:26:08.945Z,32.10
2018-07-27T09:28:37.165Z,32.30
2018-07-27T09:31:05.410Z,32.30
2018-07-27T09:33:33.650Z,32.20
2018-07-27T09:36:01.947Z,32.10
2018-07-27T09:38:30.114Z,31.70
2018-07-27T09:40:58.310Z,31.30
2018-07-27T09:43:26.462Z,31.20
2018-07-27T09:45:54.645Z,30.60
2018-07-27T09:48:22.826Z,31.10
2018-07-27T09:50:50.997Z,30.70
2018-07-27T09:53:19.189Z,31.10
2018-07-27T09:55:47.353Z,31.50
2018-07-27T09:58:15.506Z,31.10
2018-07-27T10:00:49.310Z,30.50
2018-07-27T10:03:17.454Z,30.10
2018-07-27T10:05:45.664Z,30.00
2018-07-27T10:08:13.814Z,29.70
2018-07-27T10:10:42.089Z,31.40
2018-07-27T10:13:10.234Z,30.70
2018-07-27T10:15:38.442Z,31.20
2018-07-27T10:18:06.626Z,30.80
2018-07-27T10:25:31.829Z,29.90
2018-07-27T10:27:59.990Z,30.20
2018-07-27T10:30:28.482Z,28.90
2018-07-27T10:32:56.659Z,28.90
2018-07-27T10:35:24.815Z,28.50
2018-07-27T10:37:53.054Z,28.70
2018-07-27T10:40:21.223Z,29.30
2018-07-27T10:42:50.410Z,28.30
2018-07-27T10:45:18.598Z,28.10
2018-07-27T10:47:47.799Z,28.40
2018-07-27T10:50:16.031Z,28.80
2018-07-27T10:52:44.219Z,29.40
2018-07-27T10:55:12.419Z,30.00
2018-07-27T10:57:40.574Z,29.10
2018-07-27T11:00:12.039Z,28.50
2018-07-27T11:02:40.407Z,27.80
2018-07-27T11:05:08.776Z,27.70
2018-07-27T11:07:36.947Z,28.00
2018-07-27T11:10:05.742Z,28.50
2018-07-27T11:12:34.035Z,28.10
2018-07-27T11:15:02.191Z,28.30
2018-07-27T11:17:30.388Z,28.40
2018-07-27T11:19:58.488Z,28.90
2018-07-27T11:22:26.683Z,28.50
2018-07-27T11:24:54.883Z,27.90
2018-07-27T11:27:23.140Z,27.80
2018-07-27T11:29:51.351Z,27.30
2018-07-27T11:32:19.511Z,26.30
2018-07-27T11:34:47.680Z,26.80
2018-07-27T11:37:15.863Z,26.60
2018-07-27T11:39:44.015Z,26.50
2018-07-27T11:42:12.235Z,26.30
2018-07-27T11:44:40.360Z,26.80
2018-07-27T11:47:08.556Z,26.60
2018-07-27T11:49:43.260Z,27.10
2018-07-27T11:52:11.419Z,27.10
2018-07-27T11:54:39.591Z,27.10
2018-07-27T11:57:07.743Z,27.40
2018-07-27T11:59:35.939Z,27.10
2018-07-27T12:02:04.147Z,27.70
2018-07-27T12:04:32.305Z,27.30
2018-07-27T12:07:00.731Z,28.00
2018-07-27T12:09:28.891Z,26.80
2018-07-27T12:11:57.102Z,26.50
2018-07-27T12:14:25.406Z,27.20
2018-07-27T12:16:53.449Z,27.30
2018-07-27T12:19:21.694Z,26.50
2018-07-27T12:21:49.922Z,28.00
2018-07-27T12:24:18.082Z,27.50
2018-07-27T12:26:46.285Z,26.80
2018-07-27T12:29:14.466Z,27.00
2018-07-27T12:31:42.614Z,26.10
2018-07-27T12:34:10.841Z,26.20
2018-07-27T12:36:39.010Z,25.70
2018-07-27T12:39:09.822Z,26.10
2018-07-27T12:41:38.759Z,26.40
2018-07-27T12:44:06.915Z,26.40
2018-07-27T12:46:35.251Z,25.00
2018-07-27T12:49:03.459Z,25.90
2018-07-27T12:51:31.634Z,25.70
2018-07-27T12:53:59.792Z,26.40
2018-07-27T12:56:28.374Z,25.80
2018-07-27T12:58:56.627Z,25.50
2018-07-27T13:01:25.591Z,25.50
2018-07-27T13:03:53.931Z,25.20
2018-07-27T13:06:22.266Z,24.50
2018-07-27T13:08:50.435Z,23.80
2018-07-27T13:11:18.606Z,23.80
2018-07-27T13:13:46.780Z,23.40
2018-07-27T13:16:15.103Z,23.20
2018-07-27T13:18:43.355Z,23.20
2018-07-27T13:21:11.571Z,23.70
2018-07-27T13:23:50.027Z,23.70
2018-07-27T13:26:25.181Z,24.10
2018-07-27T13:28:46.416Z,23.80
2018-07-27T13:31:14.615Z,22.50
2018-07-27T13:34:55.107Z,22.60
2018-07-27T13:37:24.550Z,22.60
2018-07-27T13:42:23.571Z,23.20
2018-07-27T13:44:51.739Z,23.70
2018-07-27T13:47:20.344Z,23.50
2018-07-27T13:49:48.536Z,23.60
2018-07-27T13:52:16.711Z,23.70
2018-07-27T13:54:44.949Z,23.40
2018-07-27T13:57:13.129Z,23.20
2018-07-27T13:59:41.303Z,23.30
2018-07-27T14:04:37.756Z,23.70
2018-07-27T14:07:06.768Z,23.20
2018-07-27T14:09:34.981Z,23.40
2018-07-27T14:12:03.168Z,23.40
2018-07-27T14:14:31.427Z,23.70
2018-07-27T14:16:59.612Z,23.00
2018-07-27T14:19:28.620Z,23.70
2018-07-27T14:24:24.816Z,23.70
2018-07-27T14:26:53.067Z,24.50
2018-07-27T14:29:21.286Z,23.80
2018-07-27T14:31:49.436Z,23.80
2018-07-27T14:34:17.652Z,23.60
2018-07-27T14:36:45.853Z,23.20
2018-07-27T14:39:15.304Z,23.60
2018-07-27T14:41:43.822Z,24.10
2018-07-27T14:44:12.151Z,23.70
2018-07-27T14:46:40.468Z,24.10
2018-07-27T14:49:10.318Z,24.20
2018-07-27T14:51:38.920Z,24.20
2018-07-27T14:54:07.868Z,24.30
2018-07-27T14:56:36.104Z,24.30
2018-07-27T14:59:04.361Z,24.60
2018-07-27T15:01:32.569Z,24.80
2018-07-27T15:04:00.768Z,24.60
2018-07-27T15:06:28.936Z,24.50
2018-07-27T15:08:57.097Z,25.20
2018-07-27T15:11:25.365Z,24.80
2018-07-27T15:13:53.564Z,24.80
2018-07-27T15:16:21.793Z,24.80
2018-07-27T15:18:49.929Z,24.90
2018-07-27T15:23:52.666Z,24.90
2018-07-27T15:26:20.916Z,24.20
2018-07-27T15:28:49.234Z,24.20
2018-07-27T15:31:17.466Z,24.30
2018-07-27T15:33:46.417Z,24.50
2018-07-27T15:36:14.634Z,24.40
2018-07-27T15:38:42.806Z,24.30
2018-07-27T15:41:11.000Z,24.30
2018-07-27T15:43:39.246Z,25.20
2018-07-27T15:46:07.445Z,25.70
2018-07-27T15:48:35.785Z,25.90
2018-07-27T15:51:03.937Z,26.10
2018-07-27T15:53:32.182Z,26.10
2018-07-27T15:56:00.394Z,25.70
2018-07-27T19:03:30.057Z,25.40
2018-07-27T19:08:26.265Z,32.30
2018-07-27T19:10:54.532Z,32.40
2018-07-27T19:13:22.859Z,32.60
2018-07-27T19:15:51.051Z,32.50
2018-07-27T19:18:19.273Z,32.60
2018-07-27T19:20:47.552Z,32.60
2018-07-27T19:23:15.784Z,32.90
2018-07-27T19:25:44.013Z,33.10
2018-07-27T19:28:12.278Z,33.10
